Terminal Aerodrome Forecast
Issued by NWS San Angelo, TX

Home | Current Version | Previous Version | Text Only | Print | Product List | Glossary On
Versions: 1 2 3 4 5 6 7 8 9 10 11 12 13 14 15 16 17 18 19 20 21 22
000
FTUS44 KSJT 251100
TAFSJT
TAF
KSJT 251125Z 2512/2612 15009KT P6SM VCTS BKN012CB
     FM251500 17012G20KT P6SM VCTS BKN050CB
     FM251800 20015G23KT P6SM SCT250
     FM261000 19008KT P6SM BKN020=

USA.gov is the U.S. government's official web portal to all federal, state and local government web resources and services.